createdAt,value
2022-11-02T00:01:27.151Z,3.78
2022-11-02T00:05:31.070Z,3.60
2022-11-02T00:09:34.070Z,3.67
2022-11-02T00:13:37.100Z,3.75
2022-11-02T00:17:50.007Z,4.05
2022-11-02T00:21:52.960Z,3.58
2022-11-02T00:26:00.691Z,3.45
2022-11-02T00:30:05.516Z,4.13
2022-11-02T00:34:08.273Z,4.43
2022-11-02T00:38:10.988Z,4.35
2022-11-02T00:42:13.884Z,4.53
2022-11-02T00:46:16.672Z,6.55
2022-11-02T00:50:19.426Z,7.90
2022-11-02T00:54:25.906Z,7.93
2022-11-02T00:58:31.582Z,8.77
2022-11-02T01:02:35.134Z,8.45
2022-11-02T01:06:38.410Z,8.95
2022-11-02T01:10:44.086Z,8.80
2022-11-02T01:14:50.819Z,9.55
2022-11-02T01:18:55.268Z,8.20
2022-11-02T01:22:59.264Z,6.72
2022-11-02T01:27:02.540Z,5.60
2022-11-02T01:31:06.963Z,5.45
2022-11-02T01:35:11.830Z,4.53
2022-11-02T01:39:15.575Z,5.22
2022-11-02T01:43:24.467Z,4.50
2022-11-02T01:47:34.981Z,4.00
2022-11-02T01:51:49.435Z,4.03
2022-11-02T01:55:52.795Z,4.57
2022-11-02T02:00:08.302Z,4.35
2022-11-02T02:04:20.893Z,3.53
2022-11-02T02:08:25.600Z,4.18
2022-11-02T02:12:29.679Z,3.85
2022-11-02T02:17:03.397Z,3.15
2022-11-02T02:21:40.101Z,3.13
2022-11-02T02:25:52.121Z,3.20
2022-11-02T02:29:55.542Z,3.50
2022-11-02T02:34:21.028Z,3.13
2022-11-02T02:38:40.098Z,3.40
2022-11-02T02:43:05.524Z,3.50
2022-11-02T02:47:17.141Z,3.67
2022-11-02T02:51:25.901Z,3.40
2022-11-02T02:55:35.862Z,3.10
2022-11-02T02:59:48.722Z,3.22
2022-11-02T03:03:54.984Z,3.58
2022-11-02T03:08:17.963Z,3.03
2022-11-02T03:12:50.257Z,3.10
2022-11-02T03:17:18.866Z,3.60
2022-11-02T03:21:43.854Z,3.72
2022-11-02T03:26:03.730Z,3.92
2022-11-02T03:30:17.534Z,3.92
2022-11-02T03:34:24.917Z,3.60
2022-11-02T03:38:44.572Z,3.65
2022-11-02T03:42:51.117Z,4.05
2022-11-02T03:47:00.238Z,3.70
2022-11-02T03:51:10.630Z,4.05
2022-11-02T03:55:20.653Z,4.35
2022-11-02T03:59:23.693Z,4.15
2022-11-02T04:03:28.471Z,3.88
2022-11-02T04:07:58.465Z,3.47
2022-11-02T04:12:22.051Z,3.40
2022-11-02T04:16:28.380Z,3.65
2022-11-02T04:20:33.400Z,4.05
2022-11-02T04:24:54.620Z,3.72
2022-11-02T04:28:58.513Z,4.00
2022-11-02T04:33:19.815Z,4.45
2022-11-02T04:37:48.326Z,4.20
2022-11-02T04:41:51.493Z,4.45
2022-11-02T04:46:13.883Z,4.30
2022-11-02T04:50:17.046Z,3.25
2022-11-02T04:54:20.569Z,4.68
2022-11-02T04:58:28.512Z,5.32
2022-11-02T05:02:32.201Z,5.22
2022-11-02T05:06:35.097Z,4.70
2022-11-02T05:10:39.019Z,4.57
2022-11-02T05:14:42.707Z,4.68
2022-11-02T05:18:45.845Z,4.30
2022-11-02T05:22:50.849Z,4.15
2022-11-02T05:26:55.281Z,4.10
2022-11-02T05:31:02.247Z,3.85
2022-11-02T05:35:08.635Z,3.97
2022-11-02T05:39:11.323Z,4.13
2022-11-02T05:43:16.624Z,4.05
2022-11-02T05:47:20.276Z,3.97
2022-11-02T05:51:23.113Z,4.03
2022-11-02T05:55:25.825Z,3.53
2022-11-02T05:59:30.874Z,3.70
2022-11-02T06:03:36.218Z,4.50
2022-11-02T06:07:38.993Z,4.22
2022-11-02T06:11:41.846Z,3.78
2022-11-02T06:15:44.688Z,3.72
2022-11-02T06:19:47.498Z,3.80
2022-11-02T06:23:50.855Z,3.97
2022-11-02T06:27:56.708Z,4.10
2022-11-02T06:32:03.725Z,4.32
2022-11-02T06:36:07.325Z,5.65
2022-11-02T06:40:11.126Z,4.90
2022-11-02T06:44:13.855Z,4.95
2022-11-02T06:48:17.104Z,4.40
2022-11-02T06:52:20.037Z,4.35
2022-11-02T06:56:22.999Z,3.80
2022-11-02T07:00:26.141Z,4.20
2022-11-02T07:04:28.914Z,4.57
2022-11-02T07:08:31.825Z,6.13
2022-11-02T07:12:34.994Z,5.60
2022-11-02T07:16:37.919Z,6.88
2022-11-02T07:20:41.092Z,7.07
2022-11-02T07:24:44.032Z,6.03
2022-11-02T07:28:47.270Z,6.20
2022-11-02T07:32:50.215Z,6.68
2022-11-02T07:36:54.131Z,7.28
2022-11-02T07:40:57.008Z,6.63
2022-11-02T07:45:02.262Z,7.55
2022-11-02T07:49:06.090Z,7.78
2022-11-02T07:53:09.680Z,7.03
2022-11-02T07:57:12.552Z,7.28
2022-11-02T08:01:15.622Z,7.38
2022-11-02T08:05:18.548Z,7.05
2022-11-02T08:09:21.613Z,7.18
2022-11-02T08:13:26.152Z,6.97
2022-11-02T08:17:29.122Z,7.45
2022-11-02T08:21:32.112Z,6.55
2022-11-02T08:25:35.874Z,7.47
2022-11-02T08:29:38.810Z,7.93
2022-11-02T08:33:47.448Z,7.85
2022-11-02T08:37:58.114Z,7.95
2022-11-02T08:42:02.993Z,7.55
2022-11-02T08:46:14.710Z,7.70
2022-11-02T08:50:18.629Z,7.25
2022-11-02T08:54:21.558Z,6.78
2022-11-02T08:58:24.632Z,7.50
2022-11-02T09:02:29.423Z,7.28
2022-11-02T09:06:32.852Z,6.82
2022-11-02T09:10:37.221Z,7.60
2022-11-02T09:14:40.177Z,7.50
2022-11-02T09:18:45.738Z,7.80
2022-11-02T09:22:49.155Z,7.50
2022-11-02T09:26:53.731Z,8.32
2022-11-02T09:30:56.724Z,9.02
2022-11-02T09:35:01.248Z,8.13
2022-11-02T09:39:04.605Z,7.68
2022-11-02T09:43:13.266Z,7.32
2022-11-02T09:48:03.113Z,6.55
2022-11-02T09:51:46.283Z,6.35
2022-11-02T09:55:56.967Z,6.70
2022-11-02T10:00:00.095Z,6.30
2022-11-02T10:04:35.217Z,5.72
2022-11-02T10:08:59.853Z,5.82
2022-11-02T10:13:29.165Z,6.22
2022-11-02T10:17:37.317Z,7.20
2022-11-02T10:21:43.545Z,7.05
2022-11-02T10:25:48.255Z,7.00
2022-11-02T10:30:05.973Z,6.70
2022-11-02T10:34:26.196Z,5.68
2022-11-02T10:38:38.701Z,5.70
2022-11-02T10:43:06.136Z,5.82
2022-11-02T10:47:09.849Z,5.28
2022-11-02T10:51:22.786Z,4.47
2022-11-02T10:56:31.137Z,4.45
2022-11-02T11:00:38.435Z,4.43
2022-11-02T11:04:55.242Z,4.10
2022-11-02T11:09:07.552Z,3.80
2022-11-02T11:22:35.676Z,3.73
2022-11-02T11:26:43.634Z,4.10
2022-11-02T11:31:05.089Z,3.90
2022-11-02T11:35:23.774Z,3.83
2022-11-02T11:39:33.448Z,3.53
2022-11-02T11:43:41.105Z,4.50
2022-11-02T11:47:44.436Z,4.18
2022-11-02T11:51:55.187Z,3.78
2022-11-02T11:56:01.523Z,3.67
2022-11-02T12:00:34.687Z,3.25
2022-11-02T12:04:42.024Z,3.85
2022-11-02T12:09:18.225Z,2.88
2022-11-02T12:13:43.967Z,3.20
2022-11-02T12:17:55.725Z,3.10
2022-11-02T12:22:45.590Z,3.97
2022-11-02T12:27:42.026Z,3.47
2022-11-02T12:37:26.531Z,3.40
2022-11-02T12:41:38.462Z,3.05
2022-11-02T12:45:52.546Z,3.45
2022-11-02T12:50:24.813Z,3.28
2022-11-02T12:55:01.997Z,2.92
2022-11-02T12:59:07.579Z,2.83
2022-11-02T13:03:35.140Z,2.57
2022-11-02T13:07:59.750Z,2.22
2022-11-02T13:22:49.599Z,2.50
2022-11-02T13:27:21.973Z,2.75
2022-11-02T13:31:36.649Z,2.28
2022-11-02T13:35:47.501Z,2.38
2022-11-02T13:39:54.725Z,2.40
2022-11-02T13:44:22.690Z,2.28
2022-11-02T13:49:07.758Z,2.17
2022-11-02T13:53:35.037Z,2.10
2022-11-02T13:57:51.646Z,2.60
2022-11-02T14:01:57.348Z,2.58
2022-11-02T14:06:10.458Z,2.50
2022-11-02T14:10:23.038Z,2.38
2022-11-02T14:14:26.537Z,2.30
2022-11-02T14:25:04.388Z,2.75
2022-11-02T14:34:54.340Z,2.55
2022-11-02T14:39:49.564Z,2.38
2022-11-02T14:44:34.425Z,2.60
2022-11-02T14:49:15.636Z,2.53
2022-11-02T14:53:30.186Z,3.13
2022-11-02T14:57:40.497Z,2.50
2022-11-02T15:02:22.387Z,2.60
2022-11-02T15:06:45.071Z,2.40
2022-11-02T15:12:01.820Z,2.65
2022-11-02T15:16:11.011Z,3.05
2022-11-02T15:20:30.797Z,2.47
2022-11-02T15:39:39.665Z,2.45
2022-11-02T15:44:20.152Z,2.88
2022-11-02T15:48:40.787Z,2.72
2022-11-02T15:55:32.941Z,2.88
2022-11-02T15:59:15.239Z,3.03
2022-11-02T16:03:36.831Z,2.80
2022-11-02T16:08:53.913Z,2.85
2022-11-02T16:13:23.480Z,3.10
2022-11-02T16:18:00.018Z,2.95
2022-11-02T16:22:26.354Z,3.13
2022-11-02T16:26:57.438Z,2.90
2022-11-02T16:31:19.752Z,2.53
2022-11-02T16:39:59.952Z,2.63
2022-11-02T16:44:30.576Z,2.17
2022-11-02T16:49:26.962Z,3.53
2022-11-02T16:53:34.435Z,2.88
2022-11-02T16:57:50.711Z,2.22
2022-11-02T17:02:12.543Z,2.85
2022-11-02T17:06:23.876Z,2.63
2022-11-02T17:10:35.071Z,2.60
2022-11-02T17:14:56.681Z,2.90
2022-11-02T17:19:15.783Z,3.08
2022-11-02T17:34:23.686Z,2.95
2022-11-02T17:39:07.670Z,2.37
2022-11-02T17:44:35.414Z,2.50
2022-11-02T17:48:41.759Z,2.60
